createdAt,value
2023-01-19T00:00:58.442Z,86731.00
2023-01-19T00:01:58.403Z,86733.00
2023-01-19T00:02:58.408Z,86736.00
2023-01-19T00:03:58.360Z,86733.00
2023-01-19T00:04:58.336Z,86734.00
2023-01-19T00:05:58.336Z,86733.00
2023-01-19T00:06:58.309Z,86734.00
2023-01-19T00:07:58.746Z,86738.00
2023-01-19T00:08:58.264Z,86740.00
2023-01-19T00:09:58.248Z,86742.00
2023-01-19T00:10:58.235Z,86746.00
2023-01-19T00:11:58.215Z,86744.00
2023-01-19T00:12:58.583Z,86748.00
2023-01-19T00:13:58.183Z,86748.00
2023-01-19T00:14:58.158Z,86748.00
2023-01-19T00:15:58.180Z,86752.00
2023-01-19T00:16:58.124Z,86750.00
2023-01-19T00:17:58.083Z,86750.00
2023-01-19T00:18:58.072Z,86756.00
2023-01-19T00:19:58.052Z,86756.00
2023-01-19T00:20:58.026Z,86756.00
2023-01-19T00:21:58.025Z,86758.00
2023-01-19T00:22:58.405Z,86760.00
2023-01-19T00:23:57.983Z,86762.00
2023-01-19T00:24:57.961Z,86764.00
2023-01-19T00:25:57.947Z,86764.00
2023-01-19T00:26:57.924Z,86766.00
2023-01-19T00:27:59.857Z,86766.00
2023-01-19T00:28:57.887Z,86768.00
2023-01-19T00:29:57.865Z,86768.00
2023-01-19T00:30:57.840Z,86772.00
2023-01-19T00:31:57.821Z,86772.00
2023-01-19T00:32:58.474Z,86772.00
2023-01-19T00:33:57.786Z,86772.00
2023-01-19T00:34:57.768Z,86772.00
2023-01-19T00:35:57.747Z,86772.00
2023-01-19T00:36:57.736Z,86772.00
2023-01-19T00:37:57.709Z,86772.00
2023-01-19T00:38:57.694Z,86772.00
2023-01-19T00:39:57.670Z,86774.00
2023-01-19T00:40:57.656Z,86774.00
2023-01-19T00:41:57.630Z,86774.00
2023-01-19T00:42:58.013Z,86776.00
2023-01-19T00:43:57.582Z,86776.00
2023-01-19T00:44:57.557Z,86778.00
2023-01-19T00:45:57.557Z,86776.00
2023-01-19T00:46:57.516Z,86784.00
2023-01-19T00:47:57.515Z,86780.00
2023-01-19T00:48:57.475Z,86786.00
2023-01-19T00:49:57.449Z,86784.00
2023-01-19T00:50:57.431Z,86784.00
2023-01-19T00:51:57.423Z,86788.00
2023-01-19T00:52:57.728Z,86782.00
2023-01-19T00:53:57.387Z,86786.00
2023-01-19T00:54:57.364Z,86788.00
2023-01-19T00:55:57.346Z,86789.00
2023-01-19T00:56:57.334Z,86791.00
2023-01-19T00:57:57.308Z,86789.00
2023-01-19T00:58:57.292Z,86793.00
2023-01-19T00:59:57.268Z,86795.00
2023-01-19T01:00:57.409Z,86799.00
2023-01-19T01:01:57.359Z,86797.00
2023-01-19T01:02:57.291Z,86795.00
2023-01-19T01:03:57.209Z,86799.00
2023-01-19T01:04:57.197Z,86797.00
2023-01-19T01:05:57.178Z,86797.00
2023-01-19T01:06:57.171Z,86801.00
2023-01-19T01:07:57.156Z,86801.00
2023-01-19T01:08:57.138Z,86801.00
2023-01-19T01:09:57.136Z,86801.00
2023-01-19T01:10:57.104Z,86801.00
2023-01-19T01:11:57.097Z,86799.00
2023-01-19T01:13:23.729Z,86801.00
2023-01-19T01:13:58.068Z,86801.00
2023-01-19T01:14:57.033Z,86801.00
2023-01-19T01:15:57.041Z,86795.00
2023-01-19T01:16:57.032Z,86795.00
2023-01-19T01:17:56.977Z,86797.00
2023-01-19T01:18:56.967Z,86807.00
2023-01-19T01:19:56.950Z,86805.00
2023-01-19T01:20:56.924Z,86807.00
2023-01-19T01:21:56.907Z,86807.00
2023-01-19T01:22:56.925Z,86809.00
2023-01-19T01:23:56.894Z,86811.00
2023-01-19T01:24:56.862Z,86811.00
2023-01-19T01:25:56.851Z,86811.00
2023-01-19T01:26:56.842Z,86811.00
2023-01-19T01:27:56.810Z,86815.00
2023-01-19T01:28:56.795Z,86815.00
2023-01-19T01:29:56.777Z,86817.00
2023-01-19T01:30:56.761Z,86819.00
2023-01-19T01:31:56.786Z,86819.00
2023-01-19T01:32:56.744Z,86821.00
2023-01-19T01:33:56.725Z,86823.00
2023-01-19T01:34:56.700Z,86823.00
2023-01-19T01:35:56.694Z,86825.00
2023-01-19T01:36:56.657Z,86831.00
2023-01-19T01:37:56.641Z,86829.00
2023-01-19T01:38:56.645Z,86831.00
2023-01-19T01:39:56.609Z,86835.00
2023-01-19T01:40:56.583Z,86827.00
2023-01-19T01:41:56.640Z,86833.00
2023-01-19T01:42:56.540Z,86835.00
2023-01-19T01:43:56.535Z,86833.00
2023-01-19T01:44:56.522Z,86831.00
2023-01-19T01:45:56.515Z,86833.00
2023-01-19T01:46:56.473Z,86829.00
2023-01-19T01:47:56.442Z,86831.00
2023-01-19T01:48:56.417Z,86829.00
2023-01-19T01:49:56.383Z,86827.00
2023-01-19T01:50:56.371Z,86827.00
2023-01-19T01:51:56.351Z,86829.00
2023-01-19T01:53:07.573Z,86829.00
2023-01-19T01:54:56.297Z,86835.00
2023-01-19T01:55:56.279Z,86837.00
2023-01-19T01:56:56.263Z,86837.00
2023-01-19T01:57:56.242Z,86837.00
2023-01-19T01:58:56.213Z,86839.00
2023-01-19T01:59:56.201Z,86841.00
2023-01-19T02:00:56.240Z,86841.00
2023-01-19T02:01:56.216Z,86843.00
2023-01-19T02:02:56.225Z,86844.00
2023-01-19T02:03:56.136Z,86844.00
2023-01-19T02:04:56.100Z,86841.00
2023-01-19T02:05:56.095Z,86843.00
2023-01-19T02:06:56.078Z,86843.00
2023-01-19T02:07:56.063Z,86843.00
2023-01-19T02:08:56.043Z,86841.00
2023-01-19T02:09:56.032Z,86841.00
2023-01-19T02:10:55.995Z,86841.00
2023-01-19T02:11:55.974Z,86839.00
2023-01-19T02:12:55.959Z,86839.00
2023-01-19T02:13:55.937Z,86837.00
2023-01-19T02:14:55.914Z,86837.00
2023-01-19T02:15:55.924Z,86835.00
2023-01-19T02:16:55.927Z,86837.00
2023-01-19T02:17:55.854Z,86835.00
2023-01-19T02:18:55.831Z,86835.00
2023-01-19T02:19:55.804Z,86835.00
2023-01-19T02:20:55.785Z,86837.00
2023-01-19T02:21:55.775Z,86835.00
2023-01-19T02:22:55.751Z,86837.00
2023-01-19T02:23:55.739Z,86837.00
2023-01-19T02:24:55.715Z,86839.00
2023-01-19T02:25:55.707Z,86837.00
2023-01-19T02:26:55.699Z,86839.00
2023-01-19T02:27:55.663Z,86843.00
2023-01-19T02:28:55.663Z,86841.00
2023-01-19T02:29:55.628Z,86844.00
2023-01-19T02:30:55.633Z,86843.00
2023-01-19T02:31:55.594Z,86846.00
2023-01-19T02:32:55.569Z,86848.00
2023-01-19T02:33:55.551Z,86846.00
2023-01-19T02:34:55.518Z,86848.00
2023-01-19T02:35:55.498Z,86846.00
2023-01-19T02:36:55.485Z,86846.00
2023-01-19T02:37:55.465Z,86850.00
2023-01-19T02:38:55.451Z,86850.00
2023-01-19T02:39:55.445Z,86844.00
2023-01-19T02:40:55.395Z,86844.00
2023-01-19T02:41:55.371Z,86841.00
2023-01-19T02:42:55.346Z,86841.00
2023-01-19T02:43:55.338Z,86839.00
2023-01-19T02:44:55.311Z,86839.00
2023-01-19T02:45:55.316Z,86837.00
2023-01-19T02:46:55.278Z,86837.00
2023-01-19T02:47:55.280Z,86839.00
2023-01-19T02:48:55.246Z,86841.00
2023-01-19T02:49:55.239Z,86837.00
2023-01-19T02:50:55.224Z,86841.00
2023-01-19T02:51:55.211Z,86843.00
2023-01-19T02:52:55.187Z,86843.00
2023-01-19T02:53:55.189Z,86843.00
2023-01-19T02:54:55.158Z,86846.00
2023-01-19T02:55:55.137Z,86839.00
2023-01-19T02:56:55.115Z,86846.00
2023-01-19T02:57:55.093Z,86844.00
2023-01-19T02:58:55.088Z,86846.00
2023-01-19T02:59:55.060Z,86846.00
2023-01-19T03:00:55.074Z,86844.00
2023-01-19T03:01:55.091Z,86844.00
2023-01-19T03:02:55.059Z,86843.00
2023-01-19T03:03:54.982Z,86841.00
2023-01-19T03:04:54.949Z,86844.00
2023-01-19T03:05:54.929Z,86841.00
2023-01-19T03:06:54.923Z,86841.00
2023-01-19T03:07:54.897Z,86843.00
2023-01-19T03:08:54.897Z,86844.00
2023-01-19T03:09:54.866Z,86846.00
2023-01-19T03:10:54.832Z,86843.00
2023-01-19T03:11:54.812Z,86843.00
2023-01-19T03:12:54.793Z,86841.00
2023-01-19T03:13:54.799Z,86839.00
2023-01-19T03:14:54.770Z,86841.00
2023-01-19T03:15:54.849Z,86841.00
2023-01-19T03:16:54.787Z,86841.00
2023-01-19T03:17:54.681Z,86844.00
2023-01-19T03:18:54.673Z,86844.00
2023-01-19T03:19:54.646Z,86846.00
2023-01-19T03:20:54.643Z,86846.00
2023-01-19T03:21:54.608Z,86850.00
2023-01-19T03:22:54.582Z,86850.00
2023-01-19T03:23:54.568Z,86846.00
2023-01-19T03:24:54.551Z,86850.00
2023-01-19T03:25:54.537Z,86848.00
2023-01-19T03:26:54.515Z,86848.00
2023-01-19T03:27:54.499Z,86846.00
2023-01-19T03:28:54.474Z,86846.00
2023-01-19T03:29:54.451Z,86846.00
2023-01-19T03:30:54.448Z,86844.00
2023-01-19T03:31:54.414Z,86848.00
2023-01-19T03:32:54.396Z,86844.00
2023-01-19T03:33:54.393Z,86848.00
2023-01-19T03:34:54.358Z,86846.00
2023-01-19T03:35:54.333Z,86846.00
2023-01-19T03:36:54.313Z,86852.00
2023-01-19T03:37:54.296Z,86854.00
2023-01-19T03:38:54.270Z,86850.00
2023-01-19T03:39:54.265Z,86848.00
2023-01-19T03:40:54.240Z,86848.00
2023-01-19T03:41:54.217Z,86848.00
2023-01-19T03:42:54.193Z,86850.00
2023-01-19T03:43:54.167Z,86850.00
2023-01-19T03:44:54.134Z,86848.00
2023-01-19T03:45:54.120Z,86850.00
2023-01-19T03:46:54.089Z,86848.00
2023-01-19T03:47:54.072Z,86848.00
2023-01-19T03:48:54.051Z,86848.00
2023-01-19T03:49:54.044Z,86850.00
2023-01-19T03:50:54.009Z,86852.00
2023-01-19T03:51:53.980Z,86848.00
2023-01-19T03:52:53.961Z,86850.00
2023-01-19T03:53:53.947Z,86850.00
2023-01-19T03:54:53.925Z,86848.00
2023-01-19T03:55:53.908Z,86850.00
2023-01-19T03:56:53.877Z,86850.00
2023-01-19T03:57:53.855Z,86848.00
2023-01-19T03:58:56.117Z,86846.00
2023-01-19T03:59:53.825Z,86850.00
2023-01-19T04:00:53.844Z,86848.00
2023-01-19T04:01:53.864Z,86846.00
2023-01-19T04:02:53.762Z,86844.00
2023-01-19T04:03:53.734Z,86846.00
2023-01-19T04:04:53.715Z,86844.00
2023-01-19T04:05:53.683Z,86846.00
2023-01-19T04:06:53.659Z,86844.00
2023-01-19T04:07:53.647Z,86848.00
2023-01-19T04:08:53.621Z,86852.00
2023-01-19T04:09:53.612Z,86852.00
2023-01-19T04:10:53.587Z,86852.00
2023-01-19T04:11:53.563Z,86854.00
2023-01-19T04:12:53.561Z,86854.00
2023-01-19T04:13:53.523Z,86856.00
2023-01-19T04:14:53.493Z,86854.00
2023-01-19T04:15:53.500Z,86856.00
2023-01-19T04:16:53.443Z,86856.00
2023-01-19T04:17:53.413Z,86858.00
2023-01-19T04:18:53.416Z,86854.00
2023-01-19T04:19:53.372Z,86856.00
2023-01-19T04:20:53.332Z,86856.00
2023-01-19T04:21:53.309Z,86854.00
2023-01-19T04:22:53.280Z,86856.00
2023-01-19T04:23:53.264Z,86858.00
2023-01-19T04:24:53.238Z,86858.00
2023-01-19T04:25:53.218Z,86858.00
2023-01-19T04:26:53.220Z,86864.00
2023-01-19T04:27:53.183Z,86866.00
2023-01-19T04:28:53.143Z,86868.00
2023-01-19T04:29:53.121Z,86868.00
2023-01-19T04:30:53.214Z,86866.00
2023-01-19T04:31:53.081Z,86866.00
2023-01-19T04:32:53.055Z,86864.00
2023-01-19T04:33:53.046Z,86868.00
2023-01-19T04:34:53.010Z,86866.00
2023-01-19T04:35:54.437Z,86868.00
2023-01-19T04:36:52.964Z,86870.00
2023-01-19T04:37:52.929Z,86872.00
2023-01-19T04:38:52.897Z,86870.00
2023-01-19T04:39:52.886Z,86874.00
2023-01-19T04:40:52.893Z,86876.00
2023-01-19T04:41:52.829Z,86874.00
2023-01-19T04:42:52.798Z,86874.00
2023-01-19T04:43:52.791Z,86874.00
2023-01-19T04:44:52.754Z,86874.00
2023-01-19T04:45:52.736Z,86872.00
2023-01-19T04:46:52.724Z,86872.00
2023-01-19T04:47:52.694Z,86872.00
2023-01-19T04:48:52.675Z,86872.00
2023-01-19T04:49:52.643Z,86874.00
2023-01-19T04:50:52.637Z,86878.00
2023-01-19T04:51:52.601Z,86876.00
2023-01-19T04:52:52.595Z,86878.00
2023-01-19T04:53:52.545Z,86882.00
2023-01-19T04:54:52.549Z,86880.00
2023-01-19T04:55:52.495Z,86880.00
2023-01-19T04:56:52.473Z,86886.00
2023-01-19T04:57:52.441Z,86884.00
2023-01-19T04:58:52.412Z,86884.00
2023-01-19T04:59:52.394Z,86884.00
2023-01-19T05:00:52.420Z,86888.00
2023-01-19T05:01:52.385Z,86888.00
2023-01-19T05:02:52.344Z,86890.00
2023-01-19T05:03:52.302Z,86892.00
2023-01-19T05:04:52.259Z,86892.00
2023-01-19T05:05:52.246Z,86892.00
2023-01-19T05:06:52.209Z,86892.00
2023-01-19T05:07:52.186Z,86894.00
2023-01-19T05:08:52.157Z,86892.00
2023-01-19T05:09:52.145Z,86894.00
2023-01-19T05:10:52.148Z,86894.00
2023-01-19T05:11:52.096Z,86896.00
2023-01-19T05:12:52.075Z,86894.00
2023-01-19T05:13:52.057Z,86894.00
2023-01-19T05:14:52.035Z,86894.00
2023-01-19T05:15:52.102Z,86894.00
2023-01-19T05:16:51.988Z,86894.00
2023-01-19T05:17:51.959Z,86898.00
2023-01-19T05:18:51.940Z,86898.00
2023-01-19T05:19:51.901Z,86898.00
2023-01-19T05:20:51.889Z,86898.00
2023-01-19T05:21:51.883Z,86894.00
2023-01-19T05:22:51.841Z,86896.00
2023-01-19T05:23:51.850Z,86894.00
2023-01-19T05:24:51.811Z,86894.00
2023-01-19T05:25:51.792Z,86898.00
2023-01-19T05:26:51.740Z,86899.00
2023-01-19T05:27:51.733Z,86903.00
2023-01-19T05:28:51.703Z,86903.00
2023-01-19T05:29:51.672Z,86909.00
2023-01-19T05:30:51.679Z,86909.00
2023-01-19T05:31:51.671Z,86911.00
2023-01-19T05:32:51.646Z,86915.00
2023-01-19T05:33:51.606Z,86915.00
2023-01-19T05:34:51.566Z,86915.00
2023-01-19T05:35:51.541Z,86915.00
2023-01-19T05:36:51.521Z,86917.00
2023-01-19T05:37:51.509Z,86917.00
2023-01-19T05:38:51.479Z,86919.00
2023-01-19T05:39:51.459Z,86919.00
2023-01-19T05:40:51.445Z,86921.00
2023-01-19T05:41:51.416Z,86919.00
2023-01-19T05:42:51.385Z,86919.00
2023-01-19T05:43:51.371Z,86921.00
2023-01-19T05:44:51.346Z,86921.00
2023-01-19T05:45:51.313Z,86921.00
2023-01-19T05:46:51.346Z,86923.00
2023-01-19T05:47:51.259Z,86923.00
2023-01-19T05:48:51.222Z,86921.00
2023-01-19T05:49:51.200Z,86925.00
2023-01-19T05:50:51.186Z,86923.00
2023-01-19T05:51:51.159Z,86925.00
2023-01-19T05:52:51.121Z,86927.00
2023-01-19T05:53:51.146Z,86927.00
2023-01-19T05:54:51.065Z,86929.00
2023-01-19T05:55:51.026Z,86927.00
2023-01-19T05:56:51.011Z,86927.00
2023-01-19T05:57:50.980Z,86929.00
2023-01-19T05:58:50.947Z,86936.00
2023-01-19T05:59:50.930Z,86938.00
2023-01-19T06:00:50.953Z,86938.00
2023-01-19T06:01:50.991Z,86940.00
2023-01-19T06:02:50.918Z,86942.00
2023-01-19T06:03:50.807Z,86942.00
2023-01-19T06:04:50.793Z,86944.00
2023-01-19T06:05:50.769Z,86944.00
2023-01-19T06:06:50.735Z,86944.00
2023-01-19T06:07:50.702Z,86946.00
2023-01-19T06:08:50.676Z,86950.00
2023-01-19T06:09:50.649Z,86948.00
2023-01-19T06:10:50.634Z,86951.00
2023-01-19T06:11:50.604Z,86950.00
2023-01-19T06:12:50.575Z,86951.00
2023-01-19T06:13:50.549Z,86953.00
2023-01-19T06:14:50.537Z,86955.00
2023-01-19T06:15:50.509Z,86953.00
2023-01-19T06:16:50.507Z,86953.00
2023-01-19T06:17:50.456Z,86953.00
2023-01-19T06:18:50.443Z,86951.00
2023-01-19T06:19:50.420Z,86951.00
2023-01-19T06:20:50.394Z,86951.00
2023-01-19T06:21:50.384Z,86951.00
2023-01-19T06:22:50.355Z,86955.00
2023-01-19T06:23:50.328Z,86953.00
2023-01-19T06:24:50.314Z,86953.00
2023-01-19T06:25:50.287Z,86955.00
2023-01-19T06:26:50.255Z,86955.00
2023-01-19T06:27:50.292Z,86955.00
2023-01-19T06:28:50.227Z,86953.00
2023-01-19T06:29:50.198Z,86953.00
2023-01-19T06:30:50.206Z,86957.00
2023-01-19T06:31:50.194Z,86955.00
2023-01-19T06:32:50.133Z,86959.00
2023-01-19T06:33:50.162Z,86961.00
2023-01-19T06:34:51.055Z,86961.00
2023-01-19T06:35:50.092Z,86961.00
2023-01-19T06:36:50.067Z,86963.00
2023-01-19T06:37:50.044Z,86963.00
2023-01-19T06:38:50.053Z,86963.00
2023-01-19T06:39:50.000Z,86957.00
2023-01-19T06:40:49.973Z,86961.00
2023-01-19T06:41:49.975Z,86959.00
2023-01-19T06:42:50.051Z,86959.00
2023-01-19T06:43:49.911Z,86963.00
2023-01-19T06:44:49.884Z,86963.00
2023-01-19T06:45:49.912Z,86965.00
2023-01-19T06:46:49.839Z,86965.00
2023-01-19T06:47:49.846Z,86967.00
2023-01-19T06:48:49.816Z,86969.00
2023-01-19T06:49:49.780Z,86973.00
2023-01-19T06:50:49.756Z,86973.00
2023-01-19T06:51:49.750Z,86975.00
2023-01-19T06:52:49.719Z,86977.00
2023-01-19T06:53:49.690Z,86981.00
2023-01-19T06:54:49.804Z,86977.00
2023-01-19T06:55:49.671Z,86979.00
2023-01-19T06:56:49.622Z,86981.00
2023-01-19T06:57:49.671Z,86979.00
2023-01-19T06:58:49.583Z,86983.00
2023-01-19T06:59:49.561Z,86983.00
2023-01-19T07:00:49.572Z,86987.00
2023-01-19T07:01:49.608Z,86985.00
2023-01-19T07:02:49.514Z,86991.00
2023-01-19T07:03:49.476Z,86989.00
2023-01-19T07:04:49.427Z,86991.00
2023-01-19T07:05:49.391Z,86991.00
2023-01-19T07:06:49.395Z,86995.00
2023-01-19T07:07:49.339Z,86993.00
2023-01-19T07:08:49.307Z,86999.00
2023-01-19T07:09:49.268Z,86997.00
2023-01-19T07:11:26.319Z,86997.00
2023-01-19T07:11:50.224Z,86999.00
2023-01-19T07:12:49.198Z,86997.00
2023-01-19T07:13:49.277Z,86993.00
2023-01-19T07:14:49.146Z,86995.00
2023-01-19T07:15:49.100Z,86995.00
2023-01-19T07:16:49.104Z,86993.00
2023-01-19T07:17:49.046Z,86995.00
2023-01-19T07:18:49.003Z,86997.00
2023-01-19T07:19:48.974Z,86997.00
2023-01-19T07:20:48.981Z,86999.00
2023-01-19T07:21:48.917Z,86999.00
2023-01-19T09:18:45.332Z,87089.00
2023-01-19T09:37:44.883Z,87103.00
2023-01-19T09:38:44.867Z,87105.00
2023-01-19T09:39:44.863Z,87105.00
2023-01-19T09:40:44.812Z,87112.00
2023-01-19T09:41:44.768Z,87112.00
2023-01-19T09:42:44.758Z,87114.00
2023-01-19T09:43:44.768Z,87116.00
2023-01-19T09:44:44.671Z,87110.00
2023-01-19T09:45:44.679Z,87114.00
2023-01-19T09:46:44.698Z,87112.00
2023-01-19T09:47:44.604Z,87110.00
2023-01-19T09:48:44.567Z,87112.00
2023-01-19T09:49:44.559Z,87114.00
2023-01-19T09:50:44.513Z,87114.00
2023-01-19T09:51:44.537Z,87118.00
2023-01-19T09:52:44.464Z,87116.00
2023-01-19T09:53:44.441Z,87116.00
2023-01-19T09:54:44.451Z,87116.00
2023-01-19T09:55:44.441Z,87114.00
2023-01-19T09:56:44.391Z,87114.00
2023-01-19T09:57:44.331Z,87114.00
2023-01-19T09:58:44.362Z,87112.00
2023-01-19T09:59:44.280Z,87112.00
2023-01-19T10:00:44.351Z,87108.00
2023-01-19T10:01:44.313Z,87110.00
2023-01-19T10:02:44.308Z,87114.00
2023-01-19T10:03:44.154Z,87116.00
2023-01-19T10:04:44.128Z,87116.00
2023-01-19T10:05:44.086Z,87116.00
2023-01-19T10:06:44.071Z,87116.00
2023-01-19T10:07:44.064Z,87114.00
2023-01-19T10:08:44.017Z,87114.00
2023-01-19T10:09:43.979Z,87120.00
2023-01-19T10:10:43.947Z,87120.00
2023-01-19T10:11:52.582Z,87122.00
2023-01-19T10:12:44.867Z,87120.00
2023-01-19T10:13:43.820Z,87120.00
2023-01-19T10:14:43.793Z,87118.00
2023-01-19T10:15:43.770Z,87118.00
2023-01-19T10:16:43.718Z,87120.00
2023-01-19T10:17:43.697Z,87116.00
2023-01-19T10:18:43.652Z,87118.00
2023-01-19T10:19:46.362Z,87122.00
2023-01-19T10:20:43.590Z,87118.00
2023-01-19T10:21:43.557Z,87124.00
2023-01-19T10:22:43.506Z,87122.00
2023-01-19T10:23:43.458Z,87120.00
2023-01-19T10:24:43.424Z,87118.00
2023-01-19T10:25:43.496Z,87120.00
2023-01-19T10:26:43.377Z,87120.00
2023-01-19T10:27:43.354Z,87124.00
2023-01-19T10:28:43.272Z,87122.00
2023-01-19T10:29:43.231Z,87118.00
2023-01-19T10:30:43.239Z,87120.00
2023-01-19T10:31:43.172Z,87122.00
2023-01-19T10:32:43.102Z,87118.00
2023-01-19T10:33:43.059Z,87118.00
2023-01-19T10:34:43.015Z,87118.00
2023-01-19T10:35:43.006Z,87116.00
2023-01-19T10:36:42.977Z,87114.00
2023-01-19T10:37:42.918Z,87118.00
2023-01-19T10:38:42.883Z,87118.00
2023-01-19T10:39:42.831Z,87118.00
2023-01-19T10:40:42.793Z,87114.00
2023-01-19T10:41:42.723Z,87118.00
2023-01-19T10:42:42.691Z,87116.00
2023-01-19T10:43:42.614Z,87116.00
2023-01-19T10:44:42.581Z,87114.00
2023-01-19T10:45:42.582Z,87110.00
2023-01-19T10:46:42.501Z,87112.00
2023-01-19T10:47:42.484Z,87112.00
2023-01-19T10:48:42.411Z,87107.00
2023-01-19T10:49:42.492Z,87103.00
2023-01-19T10:50:42.462Z,87103.00
2023-01-19T10:51:42.384Z,87103.00
2023-01-19T10:52:42.354Z,87101.00
2023-01-19T10:53:42.379Z,87107.00
2023-01-19T10:54:42.373Z,87101.00
2023-01-19T10:55:42.376Z,87103.00
2023-01-19T10:56:42.430Z,87101.00
2023-01-19T10:57:42.568Z,87101.00
2023-01-19T10:58:42.500Z,87099.00
2023-01-19T10:59:42.494Z,87101.00
2023-01-19T11:00:42.650Z,87099.00
2023-01-19T11:01:42.640Z,87097.00
2023-01-19T11:02:42.655Z,87099.00
2023-01-19T11:03:42.608Z,87103.00
2023-01-19T11:04:42.721Z,87099.00
2023-01-19T11:05:42.718Z,87101.00
2023-01-19T11:06:42.767Z,87105.00
2023-01-19T11:07:42.809Z,87105.00
2023-01-19T11:08:42.853Z,87105.00
2023-01-19T11:09:42.911Z,87103.00
2023-01-19T11:10:42.957Z,87103.00
2023-01-19T11:11:42.997Z,87107.00
2023-01-19T11:12:43.029Z,87105.00
2023-01-19T11:13:43.069Z,87105.00
2023-01-19T11:14:43.112Z,87105.00
2023-01-19T11:15:43.111Z,87105.00
2023-01-19T11:16:43.176Z,87108.00
2023-01-19T11:17:43.140Z,87110.00
2023-01-19T11:18:43.158Z,87108.00
2023-01-19T11:19:43.194Z,87105.00
2023-01-19T11:20:43.172Z,87103.00
2023-01-19T11:21:43.175Z,87107.00
2023-01-19T11:22:43.173Z,87108.00
2023-01-19T11:23:43.193Z,87105.00
2023-01-19T11:24:43.174Z,87103.00
2023-01-19T11:25:43.149Z,87108.00
2023-01-19T11:26:43.169Z,87107.00
2023-01-19T11:27:43.143Z,87107.00
2023-01-19T11:28:45.054Z,87107.00
2023-01-19T11:29:43.123Z,87105.00
2023-01-19T11:30:43.133Z,87101.00
2023-01-19T11:31:43.154Z,87103.00
2023-01-19T11:32:43.132Z,87099.00
2023-01-19T11:33:43.117Z,87097.00
2023-01-19T11:34:43.095Z,87097.00
2023-01-19T11:35:43.099Z,87095.00
2023-01-19T11:36:43.090Z,87099.00
2023-01-19T11:37:43.093Z,87103.00
2023-01-19T11:38:43.065Z,87099.00
2023-01-19T11:39:43.058Z,87099.00
2023-01-19T11:40:43.035Z,87095.00
2023-01-19T11:41:43.042Z,87095.00
2023-01-19T11:42:43.028Z,87095.00
2023-01-19T11:43:49.020Z,87085.00
2023-01-19T11:44:44.053Z,87083.00
2023-01-19T11:45:43.179Z,87089.00
2023-01-19T11:46:43.150Z,87085.00
2023-01-19T11:47:43.176Z,87089.00
2023-01-19T11:48:43.184Z,87085.00
2023-01-19T11:49:43.233Z,87087.00
2023-01-19T11:50:43.256Z,87089.00
2023-01-19T11:51:43.290Z,87089.00
2023-01-19T11:52:43.324Z,87089.00
2023-01-19T11:53:43.291Z,87091.00
2023-01-19T11:54:43.574Z,87087.00
2023-01-19T11:55:43.342Z,87085.00
2023-01-19T11:56:43.329Z,87085.00
2023-01-19T11:57:43.329Z,87083.00
2023-01-19T11:58:43.335Z,87085.00
2023-01-19T11:59:43.340Z,87087.00
2023-01-19T12:00:43.345Z,87083.00
2023-01-19T12:01:43.354Z,87085.00
2023-01-19T12:02:43.346Z,87083.00
2023-01-19T12:03:43.373Z,87079.00
2023-01-19T12:04:43.360Z,87081.00
2023-01-19T12:05:43.342Z,87079.00
2023-01-19T12:06:43.342Z,87077.00
2023-01-19T12:07:43.345Z,87079.00
2023-01-19T12:08:43.321Z,87077.00
2023-01-19T12:09:43.321Z,87079.00
2023-01-19T12:10:43.311Z,87075.00
2023-01-19T12:11:43.322Z,87075.00
2023-01-19T12:12:43.291Z,87075.00
2023-01-19T12:13:43.277Z,87077.00
2023-01-19T12:14:43.288Z,87073.00
2023-01-19T12:15:43.268Z,87073.00
2023-01-19T12:16:43.350Z,87073.00
2023-01-19T12:17:43.255Z,87075.00
2023-01-19T12:18:43.267Z,87073.00
2023-01-19T12:19:43.258Z,87075.00
2023-01-19T12:20:43.276Z,87073.00
2023-01-19T12:21:43.280Z,87075.00
2023-01-19T12:22:43.301Z,87073.00
2023-01-19T12:23:43.303Z,87073.00
2023-01-19T12:24:43.296Z,87077.00
2023-01-19T12:25:43.315Z,87073.00
2023-01-19T12:26:43.303Z,87069.00
2023-01-19T12:27:43.317Z,87075.00
2023-01-19T12:28:43.306Z,87075.00
2023-01-19T12:29:43.575Z,87073.00
2023-01-19T12:30:43.430Z,87079.00
2023-01-19T12:31:43.507Z,87077.00
2023-01-19T12:32:43.278Z,87071.00
2023-01-19T12:33:43.265Z,87071.00
2023-01-19T12:34:43.261Z,87071.00
2023-01-19T12:35:43.249Z,87073.00
2023-01-19T12:36:43.223Z,87067.00
2023-01-19T12:37:43.231Z,87067.00
2023-01-19T12:38:43.195Z,87065.00
2023-01-19T12:39:43.198Z,87067.00
2023-01-19T12:40:43.190Z,87065.00
2023-01-19T12:41:43.168Z,87063.00
2023-01-19T12:42:43.165Z,87065.00
2023-01-19T12:43:43.127Z,87065.00
2023-01-19T12:44:43.115Z,87065.00
2023-01-19T12:45:43.092Z,87071.00
2023-01-19T13:41:42.210Z,87083.00
2023-01-19T13:42:42.194Z,87081.00
2023-01-19T13:43:42.185Z,87081.00
2023-01-19T13:44:42.172Z,87085.00
2023-01-19T13:45:42.157Z,87087.00
2023-01-19T13:46:42.226Z,87087.00
2023-01-19T13:47:42.131Z,87089.00
2023-01-19T13:48:42.110Z,87085.00
2023-01-19T13:49:42.091Z,87083.00
2023-01-19T13:50:42.071Z,87083.00
2023-01-19T13:51:42.063Z,87085.00
2023-01-19T13:52:42.037Z,87083.00
2023-01-19T13:53:42.035Z,87085.00
2023-01-19T13:54:42.230Z,87083.00
2023-01-19T13:55:42.039Z,87083.00
2023-01-19T13:56:42.004Z,87087.00
2023-01-19T13:57:42.005Z,87087.00
2023-01-19T13:58:41.975Z,87089.00
2023-01-19T13:59:41.968Z,87091.00
2023-01-19T14:00:41.956Z,87093.00
2023-01-19T14:01:42.098Z,87091.00
2023-01-19T14:02:42.039Z,87095.00
2023-01-19T14:03:41.916Z,87093.00
2023-01-19T14:04:41.891Z,87091.00
2023-01-19T14:05:41.918Z,87093.00
2023-01-19T14:06:41.857Z,87093.00
2023-01-19T14:07:41.870Z,87091.00
2023-01-19T14:08:41.838Z,87099.00
2023-01-19T14:09:41.810Z,87099.00
2023-01-19T14:10:41.791Z,87097.00
2023-01-19T14:11:41.785Z,87095.00
2023-01-19T14:12:58.183Z,87097.00
2023-01-19T14:13:42.785Z,87101.00
2023-01-19T14:14:41.729Z,87101.00
2023-01-19T14:15:41.783Z,87101.00
2023-01-19T14:16:41.697Z,87101.00
2023-01-19T14:17:41.684Z,87099.00
2023-01-19T14:18:41.672Z,87103.00
2023-01-19T14:19:41.681Z,87105.00
2023-01-19T14:20:41.636Z,87105.00
2023-01-19T14:21:41.644Z,87107.00
2023-01-19T14:22:41.620Z,87107.00
2023-01-19T14:23:41.591Z,87105.00
2023-01-19T14:24:41.570Z,87108.00
2023-01-19T14:25:41.549Z,87110.00
2023-01-19T14:26:41.539Z,87108.00
2023-01-19T14:27:41.520Z,87108.00
2023-01-19T14:28:41.504Z,87110.00
2023-01-19T14:29:41.483Z,87110.00
2023-01-19T14:30:41.488Z,87116.00
2023-01-19T14:31:41.528Z,87116.00
2023-01-19T14:32:41.425Z,87120.00
2023-01-19T14:33:41.464Z,87114.00
2023-01-19T14:34:41.560Z,87116.00
2023-01-19T14:35:41.379Z,87118.00
2023-01-19T14:36:41.347Z,87120.00
2023-01-19T14:37:41.337Z,87120.00
2023-01-19T14:38:41.314Z,87118.00
2023-01-19T14:39:41.297Z,87116.00
2023-01-19T14:40:41.276Z,87116.00
2023-01-19T14:41:41.255Z,87118.00
2023-01-19T14:42:41.247Z,87118.00
2023-01-19T14:43:41.245Z,87126.00
2023-01-19T14:44:41.199Z,87124.00
2023-01-19T14:45:41.188Z,87124.00
2023-01-19T14:46:41.199Z,87120.00
2023-01-19T14:47:41.140Z,87124.00
2023-01-19T14:48:41.109Z,87126.00
2023-01-19T14:49:41.101Z,87124.00
2023-01-19T14:50:42.803Z,87124.00
2023-01-19T14:52:41.042Z,87122.00
2023-01-19T14:53:41.021Z,87124.00
2023-01-19T14:54:41.019Z,87126.00
2023-01-19T14:55:40.979Z,87122.00